createdAt,value
2019-05-20T00:01:36.040Z,87.10
2019-05-20T00:04:04.512Z,72.47
2019-05-20T00:06:33.011Z,64.05
2019-05-20T00:09:01.496Z,72.03
2019-05-20T00:11:30.105Z,71.07
2019-05-20T00:13:58.946Z,61.15
2019-05-20T00:16:27.440Z,55.33
2019-05-20T00:18:56.005Z,55.10
2019-05-20T00:21:24.478Z,59.50
2019-05-20T00:23:52.978Z,56.70
2019-05-20T00:26:21.442Z,54.65
2019-05-20T00:28:49.910Z,54.95
2019-05-20T00:31:18.409Z,50.85
2019-05-20T00:33:46.867Z,54.58
2019-05-20T00:36:15.341Z,50.67
2019-05-20T00:38:45.562Z,51.53
2019-05-20T00:41:14.093Z,49.13
2019-05-20T00:43:42.562Z,54.75
2019-05-20T00:46:11.049Z,54.30
2019-05-20T00:48:39.505Z,64.95
2019-05-20T00:51:07.974Z,58.78
2019-05-20T00:53:36.470Z,64.10
2019-05-20T00:56:05.077Z,67.90
2019-05-20T00:58:33.836Z,63.13
2019-05-20T01:01:02.336Z,62.23
2019-05-20T01:03:30.934Z,64.75
2019-05-20T01:05:59.399Z,57.95
2019-05-20T01:08:27.946Z,60.55
2019-05-20T01:10:56.399Z,52.48
2019-05-20T01:13:24.874Z,55.40
2019-05-20T01:15:54.866Z,57.78
2019-05-20T01:18:25.557Z,58.42
2019-05-20T01:20:54.482Z,61.80
2019-05-20T01:23:23.025Z,47.62
2019-05-20T01:25:51.526Z,51.00
2019-05-20T01:28:19.998Z,55.40
2019-05-20T01:30:48.470Z,57.75
2019-05-20T01:33:17.016Z,48.25
2019-05-20T01:35:46.860Z,47.53
2019-05-20T01:38:15.347Z,49.25
2019-05-20T01:40:44.288Z,48.13
2019-05-20T01:43:12.794Z,46.02
2019-05-20T01:45:41.272Z,45.33
2019-05-20T01:48:09.742Z,45.55
2019-05-20T01:50:38.204Z,45.15
2019-05-20T01:53:06.671Z,44.93
2019-05-20T01:55:35.139Z,41.80
2019-05-20T01:58:04.032Z,53.30
2019-05-20T02:00:32.489Z,47.90
2019-05-20T02:03:01.024Z,50.60
2019-05-20T02:05:29.511Z,46.68
2019-05-20T02:07:58.058Z,56.08
2019-05-20T02:10:26.569Z,49.73
2019-05-20T02:12:55.039Z,52.10
2019-05-20T02:15:33.771Z,49.93
2019-05-20T02:18:02.243Z,49.70
2019-05-20T02:20:30.700Z,47.67
2019-05-20T02:23:15.082Z,46.20
2019-05-20T02:25:47.792Z,49.18
2019-05-20T02:28:16.421Z,45.25
2019-05-20T02:30:44.882Z,47.15
2019-05-20T02:33:13.412Z,42.78
2019-05-20T02:35:41.981Z,43.25
2019-05-20T02:38:10.432Z,38.92
2019-05-20T02:40:39.217Z,35.92
2019-05-20T02:43:09.306Z,38.65
2019-05-20T02:45:37.758Z,36.13
2019-05-20T02:48:07.222Z,37.60
2019-05-20T02:50:38.719Z,39.53
2019-05-20T02:53:07.255Z,34.35
2019-05-20T02:55:35.754Z,37.35
2019-05-20T02:58:04.229Z,37.38
2019-05-20T03:00:33.213Z,36.25
2019-05-20T03:03:01.809Z,31.05
2019-05-20T03:05:30.538Z,31.65
2019-05-20T03:07:59.463Z,32.75
2019-05-20T03:10:27.993Z,33.33
2019-05-20T03:12:56.819Z,31.75
2019-05-20T03:15:25.371Z,32.48
2019-05-20T03:17:53.938Z,34.10
2019-05-20T03:20:24.194Z,26.62
2019-05-20T03:22:52.749Z,25.48
2019-05-20T03:25:21.350Z,25.27
2019-05-20T03:27:50.070Z,26.93
2019-05-20T03:30:18.774Z,27.35
2019-05-20T03:32:48.774Z,25.70
2019-05-20T03:35:17.252Z,28.10
2019-05-20T03:37:45.783Z,28.12
2019-05-20T03:40:14.487Z,29.07
2019-05-20T03:42:42.994Z,30.25
2019-05-20T03:45:13.161Z,28.40
2019-05-20T03:47:41.633Z,32.08
2019-05-20T03:50:10.509Z,28.23
2019-05-20T03:52:39.041Z,30.23
2019-05-20T03:55:07.862Z,26.37
2019-05-20T03:57:36.944Z,27.95
2019-05-20T04:00:08.999Z,25.70
2019-05-20T04:02:37.559Z,26.33
2019-05-20T04:05:06.338Z,27.75
2019-05-20T04:07:34.879Z,27.50
2019-05-20T04:10:04.288Z,28.02
2019-05-20T04:12:33.168Z,23.25
2019-05-20T04:15:01.664Z,25.12
2019-05-20T04:17:31.655Z,26.20
2019-05-20T04:20:00.123Z,26.68
2019-05-20T04:22:28.668Z,27.20
2019-05-20T04:24:57.195Z,32.05
2019-05-20T04:27:25.682Z,38.23
2019-05-20T04:29:54.197Z,38.08
2019-05-20T04:32:22.685Z,43.58
2019-05-20T04:34:51.381Z,44.53
2019-05-20T04:37:20.213Z,40.95
2019-05-20T04:39:49.027Z,35.48
2019-05-20T04:42:17.495Z,41.23
2019-05-20T04:44:46.059Z,37.78
2019-05-20T04:47:14.882Z,36.75
2019-05-20T04:49:43.746Z,34.83
2019-05-20T04:52:12.581Z,32.67
2019-05-20T04:54:41.035Z,33.98
2019-05-20T04:57:09.503Z,36.15
2019-05-20T04:59:37.971Z,30.45
2019-05-20T05:02:06.757Z,30.02
2019-05-20T05:04:35.262Z,32.45
2019-05-20T05:07:03.811Z,32.28
2019-05-20T05:09:32.332Z,29.75
2019-05-20T05:12:00.855Z,28.12
2019-05-20T05:14:29.367Z,35.90
2019-05-20T05:16:57.825Z,31.77
2019-05-20T05:19:26.285Z,30.30
2019-05-20T05:21:54.824Z,36.60
2019-05-20T05:24:23.290Z,30.10
2019-05-20T05:26:51.757Z,29.32
2019-05-20T05:29:20.383Z,30.35
2019-05-20T05:31:48.894Z,28.40
2019-05-20T05:34:17.514Z,31.90
2019-05-20T05:36:46.006Z,33.08
2019-05-20T05:39:14.461Z,31.60
2019-05-20T05:41:42.937Z,29.40
2019-05-20T05:44:11.483Z,30.50
2019-05-20T05:46:40.322Z,28.07
2019-05-20T05:49:08.960Z,28.92
2019-05-20T05:51:37.425Z,29.80
2019-05-20T05:54:07.588Z,29.90
2019-05-20T05:56:36.232Z,28.25
2019-05-20T05:59:05.173Z,28.32
2019-05-20T06:01:33.654Z,28.17
2019-05-20T06:04:02.147Z,29.85
2019-05-20T06:06:30.615Z,31.37
2019-05-20T06:08:59.105Z,29.70
2019-05-20T06:11:27.775Z,35.60
2019-05-20T06:13:56.306Z,31.62
2019-05-20T06:16:35.916Z,32.15
2019-05-20T06:18:57.999Z,33.90
2019-05-20T06:21:26.554Z,30.00
2019-05-20T06:23:55.087Z,29.63
2019-05-20T06:26:23.599Z,31.10
2019-05-20T06:28:52.082Z,26.60
2019-05-20T06:31:20.889Z,29.12
2019-05-20T06:33:49.396Z,31.10
2019-05-20T06:36:26.393Z,29.27
2019-05-20T06:38:51.386Z,29.82
2019-05-20T06:41:19.919Z,25.80
2019-05-20T06:43:48.468Z,23.73
2019-05-20T06:46:16.926Z,28.23
2019-05-20T06:48:45.381Z,28.02
2019-05-20T06:51:13.865Z,29.77
2019-05-20T06:53:42.713Z,26.48
2019-05-20T06:56:11.177Z,25.15
2019-05-20T06:58:39.802Z,24.65
2019-05-20T07:01:08.765Z,26.37
2019-05-20T07:03:37.272Z,27.90
2019-05-20T07:06:05.812Z,25.37
2019-05-20T07:08:34.372Z,28.07
2019-05-20T07:11:02.931Z,26.55
2019-05-20T07:13:31.410Z,26.40
2019-05-20T07:16:00.269Z,25.65
2019-05-20T07:18:28.854Z,23.83
2019-05-20T07:20:57.440Z,26.35
2019-05-20T07:23:25.992Z,25.43
2019-05-20T07:25:54.530Z,21.07
2019-05-20T07:28:23.798Z,23.47
2019-05-20T07:30:52.332Z,27.52
2019-05-20T07:33:20.936Z,23.92
2019-05-20T07:35:49.443Z,26.00
2019-05-20T07:38:19.513Z,27.65
2019-05-20T07:40:48.050Z,28.83
2019-05-20T07:43:16.597Z,30.77
2019-05-20T07:45:46.490Z,29.27
2019-05-20T07:48:15.430Z,34.75
2019-05-20T07:50:44.535Z,30.15
2019-05-20T07:53:13.612Z,29.50
2019-05-20T07:55:51.133Z,29.90
2019-05-20T07:58:22.484Z,28.70
2019-05-20T08:00:51.206Z,31.17
2019-05-20T08:03:19.827Z,30.35
2019-05-20T08:05:48.368Z,29.40
2019-05-20T08:08:18.521Z,31.55
2019-05-20T08:10:47.080Z,28.57
2019-05-20T08:13:15.546Z,25.32
2019-05-20T08:15:44.125Z,26.42
2019-05-20T08:18:12.670Z,26.68
2019-05-20T08:20:41.385Z,25.88
2019-05-20T08:23:09.926Z,24.45
2019-05-20T08:25:38.465Z,23.87
2019-05-20T08:28:07.154Z,25.37
2019-05-20T08:30:37.566Z,24.43
2019-05-20T08:33:06.860Z,23.40
2019-05-20T08:35:35.655Z,24.90
2019-05-20T08:38:04.496Z,24.37
2019-05-20T08:40:33.024Z,24.20
2019-05-20T08:43:01.565Z,24.82
2019-05-20T08:45:30.274Z,23.83
2019-05-20T08:47:58.835Z,24.57
2019-05-20T08:50:29.041Z,24.50
2019-05-20T08:52:57.599Z,22.65
2019-05-20T08:55:26.196Z,21.23
2019-05-20T08:57:54.755Z,24.30
2019-05-20T09:00:24.464Z,23.80
2019-05-20T09:02:54.096Z,20.80
2019-05-20T09:05:23.094Z,21.85
2019-05-20T09:08:02.515Z,22.58
2019-05-20T09:10:22.119Z,23.60
2019-05-20T09:12:50.661Z,22.80
2019-05-20T09:15:19.462Z,23.87
2019-05-20T09:17:48.093Z,23.57
2019-05-20T09:20:17.553Z,25.60
2019-05-20T09:22:46.198Z,26.20
2019-05-20T09:25:15.148Z,24.18
2019-05-20T09:27:43.925Z,27.17
2019-05-20T09:30:13.015Z,25.82
2019-05-20T09:32:42.907Z,25.52
2019-05-20T09:35:12.147Z,26.15
2019-05-20T09:37:40.687Z,24.90
2019-05-20T09:40:09.242Z,25.77
2019-05-20T09:42:40.812Z,26.90
2019-05-20T09:45:08.902Z,27.45
2019-05-20T09:47:37.509Z,27.35
2019-05-20T09:50:06.242Z,25.62
2019-05-20T09:52:34.839Z,25.40
2019-05-20T09:55:05.057Z,25.82
2019-05-20T09:57:36.510Z,25.35
2019-05-20T10:00:07.186Z,26.97
2019-05-20T10:02:38.250Z,22.90
2019-05-20T10:05:06.988Z,25.37
2019-05-20T10:07:35.564Z,22.73
2019-05-20T10:10:07.363Z,21.55
2019-05-20T10:12:46.141Z,20.43
2019-05-20T10:15:07.281Z,21.48
2019-05-20T10:17:35.822Z,23.12
2019-05-20T10:20:07.961Z,20.75
2019-05-20T10:22:36.436Z,20.72
2019-05-20T10:25:08.024Z,20.27
2019-05-20T10:27:39.491Z,20.08
2019-05-20T10:30:11.380Z,19.45
2019-05-20T10:32:40.021Z,21.50
2019-05-20T10:35:09.470Z,21.42
2019-05-20T10:37:38.064Z,21.20
2019-05-20T10:40:08.319Z,18.57
2019-05-20T10:42:36.794Z,21.05
2019-05-20T10:45:08.752Z,20.62
2019-05-20T10:47:37.217Z,18.30
2019-05-20T10:50:07.400Z,18.82
2019-05-20T10:52:35.892Z,18.50
2019-05-20T10:55:06.896Z,15.78
2019-05-20T10:57:35.393Z,16.15
2019-05-20T11:00:05.673Z,15.32
2019-05-20T11:02:34.138Z,14.68
2019-05-20T11:05:04.166Z,14.10
2019-05-20T11:07:32.702Z,15.70
2019-05-20T11:10:01.255Z,17.15
2019-05-20T11:12:29.779Z,16.45
2019-05-20T11:14:58.676Z,15.05
2019-05-20T11:17:27.229Z,15.00
2019-05-20T11:19:55.979Z,17.95
2019-05-20T11:22:24.640Z,14.23
2019-05-20T11:24:53.195Z,15.50
2019-05-20T11:27:21.733Z,15.18
2019-05-20T11:29:50.223Z,17.85
2019-05-20T11:32:19.195Z,17.52
2019-05-20T11:34:47.857Z,14.38
2019-05-20T11:37:16.478Z,16.42
2019-05-20T11:39:44.975Z,17.37
2019-05-20T11:42:13.444Z,18.50
2019-05-20T11:44:41.980Z,18.10
2019-05-20T11:47:10.482Z,20.43
2019-05-20T11:49:40.145Z,18.92
2019-05-20T11:52:08.681Z,20.77
2019-05-20T11:54:37.200Z,19.98
2019-05-20T11:57:05.769Z,18.35
2019-05-20T11:59:34.309Z,20.82
2019-05-20T12:02:04.097Z,20.75
2019-05-20T12:04:32.940Z,20.85
2019-05-20T12:07:01.683Z,22.00
2019-05-20T12:09:30.212Z,22.10
2019-05-20T12:11:58.757Z,20.15
2019-05-20T12:14:27.302Z,21.02
2019-05-20T12:16:55.879Z,19.30
2019-05-20T12:19:24.368Z,23.40
2019-05-20T12:21:53.044Z,21.75
2019-05-20T12:24:21.522Z,23.42
2019-05-20T12:26:49.991Z,24.35
2019-05-20T12:29:18.510Z,25.05
2019-05-20T12:31:47.069Z,21.48
2019-05-20T12:34:15.605Z,24.10
2019-05-20T12:36:45.860Z,24.05
2019-05-20T12:39:14.406Z,23.60
2019-05-20T12:41:42.999Z,23.25
2019-05-20T12:44:13.206Z,22.58
2019-05-20T12:46:42.020Z,21.65
2019-05-20T12:49:10.550Z,24.60
2019-05-20T12:51:39.116Z,25.62
2019-05-20T12:54:07.661Z,24.37
2019-05-20T12:56:36.209Z,25.90
2019-05-20T12:59:05.194Z,23.52
2019-05-20T13:01:33.782Z,25.20
2019-05-20T13:04:02.299Z,26.70
2019-05-20T13:06:30.813Z,26.65
2019-05-20T13:08:59.368Z,25.45
2019-05-20T13:11:27.921Z,29.50
2019-05-20T13:13:56.457Z,27.15
2019-05-20T13:16:24.946Z,30.92
2019-05-20T13:18:55.960Z,28.80
2019-05-20T13:21:23.665Z,29.67
2019-05-20T13:23:52.212Z,32.63
2019-05-20T13:26:20.748Z,37.73
2019-05-20T13:28:49.233Z,31.93
2019-05-20T13:31:17.695Z,32.95
2019-05-20T13:33:46.543Z,32.60
2019-05-20T13:36:15.085Z,34.85
2019-05-20T13:38:43.597Z,33.40
2019-05-20T13:41:12.134Z,33.28
2019-05-20T13:43:42.634Z,32.42
2019-05-20T13:46:12.522Z,33.80
2019-05-20T13:48:41.062Z,34.27
2019-05-20T13:51:09.546Z,36.55
2019-05-20T13:53:38.192Z,31.52
2019-05-20T13:56:06.730Z,34.53
2019-05-20T13:58:35.295Z,34.03
2019-05-20T14:01:03.782Z,36.30
2019-05-20T14:03:32.232Z,37.03
2019-05-20T14:06:00.735Z,36.95
2019-05-20T14:08:29.291Z,37.55
2019-05-20T14:11:04.415Z,39.67
2019-05-20T14:13:29.485Z,36.65
2019-05-20T14:15:57.955Z,44.40
2019-05-20T14:18:26.548Z,34.20
2019-05-20T14:20:56.618Z,37.42
2019-05-20T14:23:25.082Z,37.85
2019-05-20T14:25:53.838Z,38.23
2019-05-20T14:28:22.309Z,42.98
2019-05-20T14:30:50.797Z,42.58
2019-05-20T14:33:19.426Z,41.77
2019-05-20T14:35:47.902Z,40.00
2019-05-20T14:38:16.364Z,39.35
2019-05-20T14:40:44.982Z,41.95
2019-05-20T14:43:14.982Z,39.80
2019-05-20T14:45:43.556Z,40.00
2019-05-20T14:48:12.138Z,41.35
2019-05-20T14:50:40.666Z,36.75
2019-05-20T14:53:09.169Z,38.00
2019-05-20T14:55:42.534Z,33.78
2019-05-20T14:58:08.549Z,35.60
2019-05-20T15:00:37.001Z,34.92
2019-05-20T15:03:05.539Z,31.00
2019-05-20T15:05:34.224Z,34.10
2019-05-20T15:08:02.915Z,31.97
2019-05-20T15:10:31.814Z,34.70
2019-05-20T15:13:00.565Z,33.92
2019-05-20T15:15:29.239Z,37.63
2019-05-20T15:17:58.060Z,37.90
2019-05-20T15:20:26.591Z,35.80
2019-05-20T15:22:55.143Z,38.20
2019-05-20T15:25:23.618Z,36.48
2019-05-20T15:27:52.099Z,39.27
2019-05-20T15:30:22.133Z,39.03
2019-05-20T15:32:50.644Z,36.10
2019-05-20T15:35:19.184Z,38.67
2019-05-20T15:37:47.650Z,39.90
2019-05-20T15:40:16.398Z,39.45
2019-05-20T15:42:45.338Z,41.37
2019-05-20T15:45:14.144Z,44.83
2019-05-20T15:47:42.639Z,40.55
2019-05-20T15:50:11.642Z,42.00
2019-05-20T15:52:40.248Z,40.33
2019-05-20T15:55:09.390Z,35.35
2019-05-20T15:57:37.945Z,42.43
2019-05-20T16:00:09.122Z,37.15
2019-05-20T16:02:37.842Z,37.30
2019-05-20T16:05:09.512Z,43.20
2019-05-20T16:07:38.067Z,44.77
2019-05-20T16:10:07.118Z,44.08
2019-05-20T16:12:35.687Z,39.05
2019-05-20T16:15:06.477Z,42.60
2019-05-20T16:17:35.048Z,43.20
2019-05-20T16:20:07.140Z,41.18
2019-05-20T16:22:35.914Z,43.17
2019-05-20T16:25:07.300Z,48.52
2019-05-20T16:27:35.773Z,45.88
2019-05-20T16:30:07.816Z,48.33
2019-05-20T16:32:36.411Z,45.05
2019-05-20T16:35:06.635Z,49.03
2019-05-20T16:37:35.564Z,51.68
2019-05-20T16:40:09.296Z,50.28
2019-05-20T16:42:38.256Z,47.73
2019-05-20T16:45:11.966Z,52.95
2019-05-20T16:47:39.736Z,51.02
2019-05-20T16:50:10.476Z,52.20
2019-05-20T16:52:39.306Z,57.20
2019-05-20T16:55:08.374Z,53.58
2019-05-20T16:57:36.881Z,51.53
2019-05-20T17:00:16.165Z,58.87
2019-05-20T17:02:37.336Z,64.65
2019-05-20T17:05:06.808Z,58.98
2019-05-20T17:07:35.465Z,63.50
2019-05-20T17:10:06.787Z,61.50
2019-05-20T17:12:35.690Z,63.50
2019-05-20T17:15:05.240Z,63.08
2019-05-20T17:17:33.788Z,64.15
2019-05-20T17:20:02.280Z,65.57
2019-05-20T17:22:31.045Z,62.53
2019-05-20T17:24:59.873Z,69.65
2019-05-20T17:27:28.401Z,67.00
2019-05-20T17:29:57.271Z,67.80
2019-05-20T17:32:25.883Z,70.85
2019-05-20T17:34:54.444Z,68.85
2019-05-20T17:37:22.933Z,73.10
2019-05-20T17:39:51.462Z,72.55
2019-05-20T17:42:20.005Z,77.85
2019-05-20T17:44:48.477Z,102.70
2019-05-20T17:47:17.035Z,80.17
2019-05-20T17:49:45.634Z,93.85
2019-05-20T17:52:14.189Z,80.87
2019-05-20T17:54:42.652Z,77.92
2019-05-20T17:57:11.549Z,83.62
2019-05-20T17:59:40.101Z,73.35
2019-05-20T18:02:10.269Z,70.57
2019-05-20T18:04:38.779Z,70.03
2019-05-20T18:07:07.324Z,63.50
2019-05-20T18:09:37.505Z,63.10
2019-05-20T18:12:06.062Z,62.40
2019-05-20T18:14:36.731Z,64.67
2019-05-20T18:17:31.152Z,58.02
2019-05-20T18:19:59.679Z,56.73
2019-05-20T18:22:28.495Z,57.53
2019-05-20T18:24:57.037Z,59.33
2019-05-20T18:27:25.565Z,55.48
2019-05-20T18:29:54.047Z,58.15
2019-05-20T18:32:22.520Z,55.88
2019-05-20T18:34:51.001Z,57.27
2019-05-20T18:37:19.509Z,58.70
2019-05-20T18:39:48.033Z,54.70
2019-05-20T18:42:16.532Z,55.90
2019-05-20T18:44:44.985Z,59.58
2019-05-20T18:47:19.005Z,61.68
2019-05-20T18:49:47.498Z,51.95
2019-05-20T18:52:15.967Z,53.20
2019-05-20T18:54:44.432Z,52.55
2019-05-20T18:57:13.007Z,55.92
2019-05-20T18:59:41.605Z,58.13
2019-05-20T19:02:10.135Z,65.05
2019-05-20T19:04:38.638Z,64.67
2019-05-20T19:07:07.257Z,61.60
2019-05-20T19:09:35.909Z,63.33
2019-05-20T19:12:04.583Z,59.42
2019-05-20T19:14:33.053Z,59.65
2019-05-20T19:17:01.628Z,57.90
2019-05-20T19:19:30.176Z,65.35
2019-05-20T19:21:58.719Z,61.85
2019-05-20T19:24:27.760Z,61.15
2019-05-20T19:26:56.235Z,62.10
2019-05-20T19:29:24.699Z,63.42
2019-05-20T19:32:01.919Z,60.12
2019-05-20T19:34:23.367Z,62.45
2019-05-20T19:36:51.834Z,60.80
2019-05-20T19:39:20.325Z,63.73
2019-05-20T19:41:48.849Z,69.50
2019-05-20T19:44:19.157Z,69.20
2019-05-20T19:46:47.633Z,69.55
2019-05-20T19:49:16.119Z,69.62
2019-05-20T19:51:44.632Z,66.40
2019-05-20T19:54:13.170Z,69.85
2019-05-20T19:56:41.648Z,70.30
2019-05-20T19:59:10.138Z,69.50
2019-05-20T20:01:38.675Z,67.20
2019-05-20T20:04:07.191Z,66.95
2019-05-20T20:06:37.185Z,67.85
2019-05-20T20:09:06.691Z,63.50
2019-05-20T20:11:35.209Z,69.20
2019-05-20T20:14:03.887Z,71.53
2019-05-20T20:16:32.388Z,65.28
2019-05-20T20:19:00.857Z,66.40
2019-05-20T20:21:29.362Z,66.50
2019-05-20T20:23:57.883Z,61.40
2019-05-20T20:26:26.414Z,68.07
2019-05-20T20:28:54.897Z,68.40
2019-05-20T20:31:23.414Z,66.05
2019-05-20T20:33:51.938Z,62.35
2019-05-20T20:36:21.479Z,60.25
2019-05-20T20:38:50.313Z,58.48
2019-05-20T20:41:18.825Z,60.43
2019-05-20T20:43:47.325Z,57.30
2019-05-20T20:46:15.866Z,60.75
2019-05-20T20:48:44.360Z,56.53
2019-05-20T20:51:12.913Z,60.30
2019-05-20T20:53:41.374Z,58.92
2019-05-20T20:56:24.241Z,61.30
2019-05-20T20:58:40.110Z,60.65
2019-05-20T21:01:08.580Z,56.83
2019-05-20T21:03:37.059Z,63.08
2019-05-20T21:06:05.546Z,60.80
2019-05-20T21:08:34.034Z,57.70
2019-05-20T21:11:02.507Z,57.93
2019-05-20T21:13:31.779Z,65.60
2019-05-20T21:16:00.333Z,61.60
2019-05-20T21:18:28.815Z,68.67
2019-05-20T21:20:57.297Z,63.28
2019-05-20T21:23:25.778Z,66.12
2019-05-20T21:25:54.277Z,66.07
2019-05-20T21:28:22.810Z,71.22
2019-05-20T21:30:51.349Z,67.80
2019-05-20T21:33:22.946Z,72.47
2019-05-20T21:35:51.579Z,64.10
2019-05-20T21:38:20.042Z,72.87
2019-05-20T21:40:48.526Z,72.85
2019-05-20T21:43:17.006Z,69.03
2019-05-20T21:45:45.498Z,75.72
2019-05-20T21:48:14.262Z,73.33
2019-05-20T21:50:42.855Z,71.50
2019-05-20T21:53:11.714Z,73.87
2019-05-20T21:55:40.215Z,68.42
2019-05-20T21:58:08.983Z,61.30
2019-05-20T22:00:51.257Z,63.60
2019-05-20T22:03:24.375Z,63.92
2019-05-20T22:05:50.174Z,57.98
2019-05-20T22:08:18.671Z,56.90
2019-05-20T22:10:47.488Z,56.50
2019-05-20T22:13:15.964Z,63.28
2019-05-20T22:15:44.515Z,62.17
2019-05-20T22:18:12.969Z,63.78
2019-05-20T22:20:41.457Z,63.85
2019-05-20T22:23:23.234Z,60.92
2019-05-20T22:25:52.780Z,60.45
2019-05-20T22:28:21.245Z,56.48
2019-05-20T22:30:49.719Z,60.17
2019-05-20T22:33:18.262Z,53.35
2019-05-20T22:35:46.706Z,55.75
2019-05-20T22:38:15.242Z,53.23
2019-05-20T22:40:44.488Z,54.05
2019-05-20T22:43:13.125Z,60.45
2019-05-20T22:45:44.042Z,59.48
2019-05-20T22:48:12.532Z,52.67
2019-05-20T22:50:40.987Z,53.90
2019-05-20T22:53:09.484Z,56.98
2019-05-20T22:55:37.947Z,54.10
2019-05-20T22:58:06.479Z,54.35
2019-05-20T23:00:34.956Z,58.40
2019-05-20T23:03:03.423Z,52.98
2019-05-20T23:05:32.006Z,56.85
2019-05-20T23:08:03.481Z,48.00
2019-05-20T23:10:32.044Z,53.68
2019-05-20T23:13:00.582Z,51.83
2019-05-20T23:15:29.125Z,56.58
2019-05-20T23:17:57.842Z,56.37
2019-05-20T23:20:26.405Z,54.30
2019-05-20T23:22:54.871Z,53.87
2019-05-20T23:25:23.425Z,50.55
2019-05-20T23:27:51.965Z,57.58
2019-05-20T23:30:20.585Z,54.77
2019-05-20T23:32:49.054Z,57.58
2019-05-20T23:35:17.505Z,59.83
2019-05-20T23:37:45.980Z,52.10
2019-05-20T23:40:14.443Z,52.98
2019-05-20T23:42:42.920Z,58.58
2019-05-20T23:45:11.933Z,54.55
2019-05-20T23:47:40.431Z,56.18
2019-05-20T23:50:09.388Z,58.15
2019-05-20T23:52:37.859Z,58.92
2019-05-20T23:55:08.186Z,60.70
2019-05-20T23:57:36.733Z,52.13
